PWSweather.com
Personal Weather Stations
Station Observations
DW6359
Southwest Cambria, Cambria, WI 53923

Southwest CambriaCambria, WI 53923

Lat: 43.541194, Lon: -89.11275

Elevation: 945

Station Type: Davis Vantage Pro2

http://home.centurytel.net/weathercambria/wxcambria.html

Latest ConditionsUpdated 3:55:13 AM CST Wednesday, Nov 21, 2018
Currently Today's Max Today's Min Today's Average
Temperature 27.4°F-2.6°C 30.1°F-1.1°C 27.4°F-2.6°C 29.3°F-1.5°C
Dew Point 20.8°F-6.2°C 24.4°F-4.2°C 20.8°F-6.2°C 23.4°F-4.8°C
Winds 8.0 mph N12.9 kmh N 10.0 mph -16.1 kmh - - 5.3 mph 8.5 kmh
Wind Gusts -- 13.0 mph20.9 kmh - -
Humidity 76% 79% 76% 78%
Pressure 30.29 in1025.7 mb 30.29 in1025.7 mb 30.18 in1022.0 mb -
Hour Temp Dew Point Humidity Winds Wind Gusts Pressure Precip Precip Rate Daily Precip Total
03:55 AM 27.4°F-2.6°C 20.8°F-6.2°C 76% 8.0 mph N12.9 kmh N -- 30.29 in1025.7 mb 0.00 in0.0 mm 0.00 in0.0 mm 0.00 in0.0 mm
03:50 AM 27.5°F-2.5°C 20.9°F-6.2°C 76% 7.0 mph NW11.3 kmh NW -- 30.28 in1025.4 mb 0.00 in0.0 mm 0.00 in0.0 mm 0.00 in0.0 mm
03:45 AM 27.7°F-2.4°C 21.4°F-5.9°C 77% 7.0 mph NW11.3 kmh NW -- 30.28 in1025.4 mb 0.00 in0.0 mm 0.00 in0.0 mm 0.00 in0.0 mm
03:40 AM 27.8°F-2.3°C 21.5°F-5.8°C 77% 3.0 mph NW4.8 kmh NW -- 30.27 in1025.1 mb 0.00 in0.0 mm 0.00 in0.0 mm 0.00 in0.0 mm
03:35 AM 27.9°F-2.3°C 21.6°F-5.8°C 77% 8.0 mph NW12.9 kmh NW -- 30.27 in1025.1 mb 0.00 in0.0 mm 0.00 in0.0 mm 0.00 in0.0 mm
03:30 AM 28.2°F-2.1°C 21.9°F-5.6°C 77% 4.0 mph NW6.4 kmh NW -- 30.27 in1025.1 mb 0.00 in0.0 mm 0.00 in0.0 mm 0.00 in0.0 mm
03:25 AM 28.4°F-2.0°C 22.4°F-5.3°C 78% 8.0 mph NNW12.9 kmh NNW 12.0 mph19.3 kmh 30.27 in1025.1 mb 0.00 in0.0 mm 0.00 in0.0 mm 0.00 in0.0 mm
03:20 AM 28.5°F-1.9°C 22.2°F-5.4°C 77% 6.0 mph NW9.7 kmh NW 12.0 mph19.3 kmh 30.27 in1025.1 mb 0.00 in0.0 mm 0.00 in0.0 mm 0.00 in0.0 mm
03:15 AM 28.5°F-1.9°C 22.2°F-5.4°C 77% 6.0 mph NW9.7 kmh NW -- 30.26 in1024.7 mb 0.00 in0.0 mm 0.00 in0.0 mm 0.00 in0.0 mm
03:10 AM 28.7°F-1.8°C 22.4°F-5.3°C 77% 6.0 mph NW9.7 kmh NW -- 30.26 in1024.7 mb 0.00 in0.0 mm 0.00 in0.0 mm 0.00 in0.0 mm
03:05 AM 28.8°F-1.8°C 22.8°F-5.1°C 78% 8.0 mph NW12.9 kmh NW -- 30.26 in1024.7 mb 0.00 in0.0 mm 0.00 in0.0 mm 0.00 in0.0 mm
03:00 AM 29.0°F-1.7°C 23.0°F-5.0°C 78% 5.0 mph N8.0 kmh N -- 30.25 in1024.4 mb 0.00 in0.0 mm 0.00 in0.0 mm 0.00 in0.0 mm
02:55 AM 29.1°F-1.6°C 23.1°F-4.9°C 78% 3.0 mph NNW4.8 kmh NNW -- 30.25 in1024.4 mb 0.00 in0.0 mm 0.00 in0.0 mm 0.00 in0.0 mm
02:50 AM 29.2°F-1.6°C 23.2°F-4.9°C 78% 6.0 mph NNW9.7 kmh NNW -- 30.25 in1024.4 mb 0.00 in0.0 mm 0.00 in0.0 mm 0.00 in0.0 mm
02:45 AM 29.2°F-1.6°C 23.5°F-4.7°C 79% 8.0 mph NW12.9 kmh NW -- 30.25 in1024.4 mb 0.00 in0.0 mm 0.00 in0.0 mm 0.00 in0.0 mm
02:40 AM 29.3°F-1.5°C 23.6°F-4.7°C 79% 3.0 mph NNW4.8 kmh NNW -- 30.25 in1024.4 mb 0.00 in0.0 mm 0.00 in0.0 mm 0.00 in0.0 mm
02:35 AM 29.4°F-1.4°C 23.7°F-4.6°C 79% 3.0 mph NNW4.8 kmh NNW 11.0 mph17.7 kmh 30.24 in1024.0 mb 0.00 in0.0 mm 0.00 in0.0 mm 0.00 in0.0 mm
02:30 AM 29.4°F-1.4°C 23.4°F-4.8°C 78% 7.0 mph WNW11.3 kmh WNW 11.0 mph17.7 kmh 30.23 in1023.7 mb 0.00 in0.0 mm 0.00 in0.0 mm 0.00 in0.0 mm
02:25 AM 29.5°F-1.4°C 23.8°F-4.6°C 79% 7.0 mph NW11.3 kmh NW -- 30.23 in1023.7 mb 0.00 in0.0 mm 0.00 in0.0 mm 0.00 in0.0 mm
02:20 AM 29.5°F-1.4°C 23.8°F-4.6°C 79% 4.0 mph NNW6.4 kmh NNW -- 30.23 in1023.7 mb 0.00 in0.0 mm 0.00 in0.0 mm 0.00 in0.0 mm
02:15 AM 29.6°F-1.3°C 23.9°F-4.5°C 79% 6.0 mph NW9.7 kmh NW -- 30.22 in1023.4 mb 0.00 in0.0 mm 0.00 in0.0 mm 0.00 in0.0 mm
02:10 AM 29.8°F-1.2°C 24.1°F-4.4°C 79% 5.0 mph NNW8.0 kmh NNW -- 30.22 in1023.4 mb 0.00 in0.0 mm 0.00 in0.0 mm 0.00 in0.0 mm
02:05 AM 29.8°F-1.2°C 24.1°F-4.4°C 79% 4.0 mph NNW6.4 kmh NNW -- 30.22 in1023.4 mb 0.00 in0.0 mm 0.00 in0.0 mm 0.00 in0.0 mm
02:00 AM 29.9°F-1.2°C 24.2°F-4.3°C 79% 8.0 mph NW12.9 kmh NW -- 30.22 in1023.4 mb 0.00 in0.0 mm 0.00 in0.0 mm 0.00 in0.0 mm
01:55 AM 29.9°F-1.2°C 24.2°F-4.3°C 79% 6.0 mph NW9.7 kmh NW -- 30.22 in1023.4 mb 0.00 in0.0 mm 0.00 in0.0 mm 0.00 in0.0 mm
01:50 AM 29.9°F-1.2°C 24.2°F-4.3°C 79% 5.0 mph NW8.0 kmh NW -- 30.22 in1023.4 mb 0.00 in0.0 mm 0.00 in0.0 mm 0.00 in0.0 mm
01:45 AM 30.0°F-1.1°C 24.3°F-4.3°C 79% 3.0 mph NW4.8 kmh NW 13.0 mph20.9 kmh 30.21 in1023.0 mb 0.00 in0.0 mm 0.00 in0.0 mm 0.00 in0.0 mm
01:40 AM 30.0°F-1.1°C 24.3°F-4.3°C 79% 8.0 mph W12.9 kmh W 13.0 mph20.9 kmh 30.21 in1023.0 mb 0.00 in0.0 mm 0.00 in0.0 mm 0.00 in0.0 mm
01:35 AM 30.1°F-1.1°C 24.4°F-4.2°C 79% 5.0 mph WNW8.0 kmh WNW -- 30.21 in1023.0 mb 0.00 in0.0 mm 0.00 in0.0 mm 0.00 in0.0 mm
01:30 AM 30.1°F-1.1°C 24.4°F-4.2°C 79% 10.0 mph NW16.1 kmh NW -- 30.20 in1022.7 mb 0.00 in0.0 mm 0.00 in0.0 mm 0.00 in0.0 mm
01:25 AM 30.1°F-1.1°C 24.4°F-4.2°C 79% 10.0 mph W16.1 kmh W -- 30.20 in1022.7 mb 0.00 in0.0 mm 0.00 in0.0 mm 0.00 in0.0 mm
01:20 AM 30.1°F-1.1°C 24.4°F-4.2°C 79% 7.0 mph W11.3 kmh W -- 30.20 in1022.7 mb 0.00 in0.0 mm 0.00 in0.0 mm 0.00 in0.0 mm
01:15 AM 30.1°F-1.1°C 24.4°F-4.2°C 79% 8.0 mph NW12.9 kmh NW -- 30.20 in1022.7 mb 0.00 in0.0 mm 0.00 in0.0 mm 0.00 in0.0 mm
01:10 AM 30.0°F-1.1°C 24.3°F-4.3°C 79% 6.0 mph W9.7 kmh W -- 30.20 in1022.7 mb 0.00 in0.0 mm 0.00 in0.0 mm 0.00 in0.0 mm
01:05 AM 30.0°F-1.1°C 24.3°F-4.3°C 79% 2.0 mph NW3.2 kmh NW -- 30.20 in1022.7 mb 0.00 in0.0 mm 0.00 in0.0 mm 0.00 in0.0 mm
01:00 AM 30.0°F-1.1°C 24.3°F-4.3°C 79% 7.0 mph WNW11.3 kmh WNW -- 30.19 in1022.4 mb 0.00 in0.0 mm 0.00 in0.0 mm 0.00 in0.0 mm
12:55 AM 29.9°F-1.2°C 24.2°F-4.3°C 79% 4.0 mph NW6.4 kmh NW 7.0 mph11.3 kmh 30.19 in1022.4 mb 0.00 in0.0 mm 0.00 in0.0 mm 0.00 in0.0 mm
12:50 AM 29.8°F-1.2°C 24.1°F-4.4°C 79% 5.0 mph W8.0 kmh W 7.0 mph11.3 kmh 30.19 in1022.4 mb 0.00 in0.0 mm 0.00 in0.0 mm 0.00 in0.0 mm
12:45 AM 29.8°F-1.2°C 23.8°F-4.6°C 78% 3.0 mph W4.8 kmh W -- 30.19 in1022.4 mb 0.00 in0.0 mm 0.00 in0.0 mm 0.00 in0.0 mm
12:40 AM 29.7°F-1.3°C 24.0°F-4.4°C 79% 3.0 mph W4.8 kmh W -- 30.19 in1022.4 mb 0.00 in0.0 mm 0.00 in0.0 mm 0.00 in0.0 mm
12:35 AM 29.7°F-1.3°C 23.7°F-4.6°C 78% 4.0 mph W6.4 kmh W -- 30.19 in1022.4 mb 0.00 in0.0 mm 0.00 in0.0 mm 0.00 in0.0 mm
12:30 AM 29.6°F-1.3°C 23.6°F-4.7°C 78% 3.0 mph W4.8 kmh W -- 30.18 in1022.0 mb 0.00 in0.0 mm 0.00 in0.0 mm 0.00 in0.0 mm
12:25 AM 29.6°F-1.3°C 23.6°F-4.7°C 78% 2.0 mph W3.2 kmh W -- 30.18 in1022.0 mb 0.00 in0.0 mm 0.00 in0.0 mm 0.00 in0.0 mm
12:20 AM 29.6°F-1.3°C 23.6°F-4.7°C 78% 3.0 mph WSW4.8 kmh WSW -- 30.18 in1022.0 mb 0.00 in0.0 mm 0.00 in0.0 mm 0.00 in0.0 mm
12:15 AM 29.6°F-1.3°C 23.6°F-4.7°C 78% 1.0 mph WSW1.6 kmh WSW -- 30.18 in1022.0 mb 0.00 in0.0 mm 0.00 in0.0 mm 0.00 in0.0 mm
12:10 AM 29.6°F-1.3°C 23.6°F-4.7°C 78% 4.0 mph WSW6.4 kmh WSW -- 30.18 in1022.0 mb 0.00 in0.0 mm 0.00 in0.0 mm 0.00 in0.0 mm
12:05 AM 29.5°F-1.4°C 23.5°F-4.7°C 78% 2.0 mph WSW3.2 kmh WSW 5.0 mph8.0 kmh 30.18 in1022.0 mb 0.00 in0.0 mm 0.00 in0.0 mm 0.00 in0.0 mm
12:00 AM 29.5°F-1.4°C 23.5°F-4.7°C 78% 1.0 mph WSW1.6 kmh WSW 5.0 mph8.0 kmh 30.18 in1022.0 mb 0.00 in0.0 mm 0.00 in0.0 mm 0.00 in0.0 mm